createdAt,value
2019-02-08T00:02:16.025Z,99263.58
2019-02-08T00:04:45.916Z,99263.59
2019-02-08T00:07:16.045Z,99263.58
2019-02-08T00:09:45.892Z,99263.58
2019-02-08T00:12:15.744Z,99260.97
2019-02-08T00:14:45.485Z,99268.00
2019-02-08T00:17:15.223Z,99260.21
2019-02-08T00:19:45.130Z,99265.38
2019-02-08T00:22:15.112Z,99278.83
2019-02-08T00:24:45.078Z,99275.41
2019-02-08T00:27:15.069Z,99275.41
2019-02-08T00:29:44.631Z,99271.50
2019-02-08T00:32:14.424Z,99275.84
2019-02-08T00:34:44.324Z,99282.78
2019-02-08T00:37:14.385Z,99298.41
2019-02-08T00:39:44.251Z,99298.41
2019-02-08T00:42:13.935Z,99294.93
2019-02-08T00:44:43.633Z,99302.76
2019-02-08T00:47:13.776Z,99317.50
2019-02-08T00:49:44.597Z,99317.50
2019-02-08T00:52:14.917Z,99319.20
2019-02-08T00:54:44.668Z,99320.94
2019-02-08T00:57:14.370Z,99319.19
2019-02-08T00:59:44.233Z,99331.35
2019-02-08T01:02:13.892Z,99322.66
2019-02-08T01:04:43.698Z,99333.07
2019-02-08T01:07:13.878Z,99333.94
2019-02-08T01:09:43.722Z,99347.38
2019-02-08T01:12:13.435Z,99347.45
2019-02-08T01:14:44.178Z,99348.30
2019-02-08T01:17:14.100Z,99348.30
2019-02-08T01:19:43.927Z,99353.50
2019-02-08T01:22:14.058Z,99357.43
2019-02-08T01:24:43.723Z,99365.24
2019-02-08T01:27:13.566Z,99362.19
2019-02-08T01:29:43.551Z,99366.11
2019-02-08T01:32:13.147Z,99368.72
2019-02-08T01:34:42.974Z,99368.72
2019-02-08T01:37:12.795Z,99373.94
2019-02-08T01:39:42.604Z,99365.24
2019-02-08T01:42:12.920Z,99365.24
2019-02-08T01:44:42.835Z,99370.48
2019-02-08T01:47:12.425Z,99382.23
2019-02-08T01:49:42.266Z,99382.23
2019-02-08T01:52:11.968Z,99386.96
2019-02-08T01:54:41.949Z,99389.16
2019-02-08T01:57:13.088Z,99393.06
2019-02-08T01:59:42.799Z,99388.26
2019-02-08T02:02:12.403Z,99398.28
2019-02-08T02:04:42.721Z,99380.03
2019-02-08T02:07:12.527Z,99390.02
2019-02-08T02:09:42.293Z,99396.09
2019-02-08T02:12:12.363Z,99396.09
2019-02-08T02:14:42.211Z,99411.27
2019-02-08T02:17:13.997Z,99411.27
2019-02-08T02:19:43.560Z,99409.50
2019-02-08T02:22:13.224Z,99403.03
2019-02-08T02:24:44.151Z,99418.64
2019-02-08T02:27:13.898Z,99425.17
2019-02-08T02:29:43.517Z,99438.19
2019-02-08T02:32:13.599Z,99431.21
2019-02-08T02:34:44.405Z,99438.20
2019-02-08T02:37:14.122Z,99438.20
2019-02-08T02:39:43.796Z,99446.86
2019-02-08T02:42:13.450Z,99452.92
2019-02-08T02:44:43.176Z,99452.92
2019-02-08T02:47:12.851Z,99451.66
2019-02-08T02:49:42.559Z,99463.80
2019-02-08T02:52:12.584Z,99464.25
2019-02-08T02:54:43.842Z,99461.20
2019-02-08T02:57:13.818Z,99464.66
2019-02-08T02:59:43.661Z,99474.67
2019-02-08T03:02:13.358Z,99485.54
2019-02-08T03:04:43.436Z,99485.54
2019-02-08T03:07:13.307Z,99488.57
2019-02-08T03:09:43.001Z,99488.57
2019-02-08T03:12:12.904Z,99500.77
2019-02-08T03:14:42.932Z,99500.77
2019-02-08T03:17:14.723Z,99494.69
2019-02-08T03:19:45.888Z,99498.59
2019-02-08T03:22:15.698Z,99499.00
2019-02-08T03:24:48.391Z,99506.86
2019-02-08T03:27:18.314Z,99508.13
2019-02-08T03:29:48.278Z,99513.78
2019-02-08T03:32:17.931Z,99511.61
2019-02-08T03:34:47.980Z,99511.16
2019-02-08T03:37:18.735Z,99511.16
2019-02-08T03:39:48.665Z,99512.47
2019-02-08T03:42:18.469Z,99536.36
2019-02-08T03:44:48.299Z,99533.34
2019-02-08T03:47:19.962Z,99529.43
2019-02-08T03:49:51.387Z,99537.25
2019-02-08T03:52:21.251Z,99551.16
2019-02-08T03:54:50.911Z,99551.15
2019-02-08T03:57:20.527Z,99551.15
2019-02-08T03:59:50.530Z,99549.43
2019-02-08T04:02:20.243Z,99558.97
2019-02-08T04:04:49.839Z,99568.55
2019-02-08T04:07:19.464Z,99572.00
2019-02-08T04:09:49.267Z,99573.77
2019-02-08T04:12:20.576Z,99573.77
2019-02-08T04:14:50.318Z,99577.66
2019-02-08T04:17:24.144Z,99582.44
2019-02-08T04:19:56.174Z,99589.84
2019-02-08T04:22:26.646Z,99583.77
2019-02-08T04:24:56.299Z,99596.35
2019-02-08T04:27:25.954Z,99596.35
2019-02-08T04:29:56.082Z,99600.72
2019-02-08T04:32:25.683Z,99609.40
2019-02-08T04:34:55.378Z,99605.90
2019-02-08T04:37:25.268Z,99609.81
2019-02-08T04:39:54.951Z,99618.96
2019-02-08T04:42:24.872Z,99612.87
2019-02-08T04:44:57.825Z,99613.73
2019-02-08T04:47:27.585Z,99613.73
2019-02-08T04:49:57.342Z,99625.02
2019-02-08T04:52:27.167Z,99621.57
2019-02-08T04:54:56.924Z,99621.57
2019-02-08T04:57:26.595Z,99613.73
2019-02-08T04:59:56.732Z,99635.03
2019-02-08T05:02:26.408Z,99628.50
2019-02-08T05:04:55.983Z,99635.46
2019-02-08T05:07:25.823Z,99635.46
2019-02-08T05:09:55.458Z,99641.12
2019-02-08T05:12:25.093Z,99637.22
2019-02-08T05:14:54.932Z,99645.01
2019-02-08T05:17:24.937Z,99652.84
2019-02-08T05:19:54.714Z,99652.84
2019-02-08T05:22:24.413Z,99494.36
2019-02-08T05:24:54.207Z,99665.87
2019-02-08T05:27:23.972Z,99665.87
2019-02-08T05:29:53.792Z,99663.28
2019-02-08T05:32:23.872Z,99502.58
2019-02-08T05:34:53.599Z,99668.50
2019-02-08T05:37:23.890Z,99681.53
2019-02-08T05:39:53.512Z,99681.53
2019-02-08T05:42:23.258Z,99677.18
2019-02-08T05:44:53.037Z,99698.47
2019-02-08T05:47:22.662Z,99697.17
2019-02-08T05:49:52.327Z,99696.30
2019-02-08T05:52:22.151Z,99696.70
2019-02-08T05:54:54.446Z,99703.25
2019-02-08T05:57:29.117Z,99719.31
2019-02-08T05:59:58.952Z,99715.38
2019-02-08T06:02:28.604Z,99724.48
2019-02-08T06:04:58.882Z,99724.48
2019-02-08T06:07:28.898Z,99728.85
2019-02-08T06:09:58.583Z,99740.98
2019-02-08T06:12:28.496Z,99739.70
2019-02-08T06:14:58.245Z,99761.84
2019-02-08T06:17:28.040Z,99759.22
2019-02-08T06:19:58.182Z,99769.23
2019-02-08T06:22:27.884Z,99769.19
2019-02-08T06:25:03.109Z,99771.81
2019-02-08T06:27:29.422Z,99787.47
2019-02-08T06:29:59.432Z,99797.00
2019-02-08T06:32:29.210Z,99797.00
2019-02-08T06:34:59.055Z,99810.03
2019-02-08T06:37:28.720Z,99810.03
2019-02-08T06:39:58.551Z,99815.27
2019-02-08T06:42:28.423Z,99817.00
2019-02-08T06:44:58.260Z,99822.21
2019-02-08T06:47:27.987Z,99820.48
2019-02-08T06:49:57.965Z,99832.67
2019-02-08T06:52:27.895Z,99832.67
2019-02-08T06:54:57.779Z,99844.38
2019-02-08T06:57:55.679Z,99850.89
2019-02-08T07:00:30.294Z,99848.75
2019-02-08T07:03:13.164Z,99861.36
2019-02-08T07:06:12.480Z,99875.28
2019-02-08T07:09:10.412Z,99889.19
2019-02-08T07:12:04.951Z,99889.19
2019-02-08T07:15:03.015Z,99904.85
2019-02-08T07:17:50.242Z,99921.38
2019-02-08T07:20:37.841Z,99916.58
2019-02-08T07:23:35.191Z,99925.73
2019-02-08T07:26:27.483Z,99925.73
2019-02-08T07:29:14.709Z,99933.55
2019-02-08T07:32:01.934Z,99944.03
2019-02-08T07:34:49.012Z,99956.61
2019-02-08T07:37:37.223Z,99956.61
2019-02-08T07:40:25.429Z,99959.62
2019-02-08T07:43:17.659Z,99969.62
2019-02-08T07:46:06.423Z,99984.81
2019-02-08T07:49:10.608Z,99984.81
2019-02-08T07:52:08.318Z,99993.94
2019-02-08T07:54:55.647Z,100001.80
2019-02-08T07:57:40.895Z,100001.80
2019-02-08T08:00:31.285Z,99999.60
2019-02-08T08:03:24.063Z,100005.72
2019-02-08T08:06:30.847Z,100005.69
2019-02-08T08:09:34.828Z,100005.69
2019-02-08T08:12:27.126Z,100012.23
2019-02-08T08:15:09.456Z,100029.61
2019-02-08T08:17:58.294Z,100026.16
2019-02-08T08:20:45.589Z,100032.28
2019-02-08T08:23:38.347Z,100032.26
2019-02-08T08:26:36.545Z,100042.29
2019-02-08T08:29:26.711Z,100045.74
2019-02-08T08:32:08.228Z,100055.27
2019-02-08T08:35:00.270Z,100055.27
2019-02-08T08:38:09.497Z,100064.88
2019-02-08T08:41:15.733Z,100060.94
2019-02-08T08:44:39.603Z,100064.00
2019-02-08T08:47:33.734Z,100072.72
2019-02-08T08:50:30.126Z,100068.80
2019-02-08T08:53:35.963Z,100069.27
2019-02-08T08:56:48.508Z,100072.78
2019-02-08T09:00:05.246Z,100072.78
2019-02-08T09:03:14.819Z,100081.91
2019-02-08T09:06:20.772Z,100087.63
2019-02-08T09:09:27.046Z,100087.63
2019-02-08T09:12:27.561Z,100091.96
2019-02-08T09:15:30.305Z,100092.84
2019-02-08T09:18:35.196Z,100100.27
2019-02-08T09:21:40.812Z,100100.72
2019-02-08T09:24:57.784Z,100110.20
2019-02-08T09:27:59.963Z,100110.20
2019-02-08T09:31:17.831Z,100105.40
2019-02-08T09:34:23.957Z,100107.58
2019-02-08T09:37:19.429Z,100121.09
2019-02-08T09:40:40.544Z,100121.09
2019-02-08T09:44:00.086Z,100132.88
2019-02-08T09:47:18.154Z,100129.77
2019-02-08T09:50:15.228Z,100141.18
2019-02-08T09:53:29.102Z,100141.18
2019-02-08T09:56:46.573Z,100139.88
2019-02-08T09:59:54.693Z,100139.88
2019-02-08T10:03:07.319Z,99980.67
2019-02-08T10:06:32.541Z,100145.54
2019-02-08T10:09:33.741Z,100156.91
2019-02-08T10:12:48.605Z,100158.69
2019-02-08T10:16:01.247Z,100158.69
2019-02-08T10:19:13.441Z,100176.70
2019-02-08T10:22:25.360Z,100175.52
2019-02-08T10:25:25.376Z,100175.52
2019-02-08T10:28:39.280Z,100180.98
2019-02-08T10:32:16.523Z,100180.98
2019-02-08T10:35:31.544Z,100181.88
2019-02-08T10:39:00.163Z,100191.84
2019-02-08T10:42:06.547Z,100193.09
2019-02-08T10:45:27.769Z,100190.91
2019-02-08T10:48:26.349Z,100190.91
2019-02-08T10:51:46.920Z,100204.96
2019-02-08T10:55:04.067Z,100207.14
2019-02-08T10:58:08.713Z,100136.41
2019-02-08T11:01:41.529Z,100212.39
2019-02-08T11:04:41.012Z,100212.39
2019-02-08T11:07:56.452Z,100212.33
2019-02-08T11:11:14.783Z,100216.27
2019-02-08T11:14:29.990Z,100215.39
2019-02-08T11:17:38.786Z,100220.60
2019-02-08T11:20:10.412Z,100219.34
2019-02-08T11:22:40.393Z,100216.77
2019-02-08T11:25:10.584Z,100225.91
2019-02-08T11:27:40.536Z,100225.45
2019-02-08T11:30:13.357Z,100225.45
2019-02-08T11:32:43.760Z,100226.30
2019-02-08T11:35:14.107Z,100233.30
2019-02-08T11:37:44.055Z,100233.30
2019-02-08T11:40:18.279Z,100232.88
2019-02-08T11:42:48.114Z,100238.88
2019-02-08T11:45:18.200Z,100235.41
2019-02-08T11:47:48.030Z,100245.52
2019-02-08T11:50:19.573Z,100245.52
2019-02-08T11:52:49.248Z,100242.03
2019-02-08T11:55:19.013Z,100247.70
2019-02-08T11:57:48.833Z,100245.53
2019-02-08T12:00:25.448Z,100249.47
2019-02-08T12:02:55.234Z,100240.73
2019-02-08T12:05:25.082Z,100239.42
2019-02-08T12:07:54.972Z,100244.23
2019-02-08T12:10:24.756Z,100240.32
2019-02-08T12:12:54.491Z,100241.20
2019-02-08T12:15:24.812Z,100241.20
2019-02-08T12:17:54.584Z,100233.34
2019-02-08T12:20:24.456Z,100233.34
2019-02-08T12:22:54.149Z,100205.47
2019-02-08T12:25:26.944Z,100205.47
2019-02-08T12:27:56.572Z,100251.26
2019-02-08T12:30:30.030Z,100236.91
2019-02-08T12:32:59.670Z,100236.91
2019-02-08T12:35:29.279Z,100225.96
2019-02-08T12:37:58.936Z,100232.53
2019-02-08T12:40:28.448Z,100223.80
2019-02-08T12:42:58.184Z,100223.80
2019-02-08T12:45:28.422Z,100228.20
2019-02-08T12:47:57.987Z,100228.18
2019-02-08T12:50:27.637Z,100223.84
2019-02-08T12:52:57.352Z,100227.37
2019-02-08T12:55:27.075Z,100224.32
2019-02-08T12:57:56.769Z,100227.80
2019-02-08T13:00:27.269Z,100229.99
2019-02-08T13:02:56.991Z,100225.62
2019-02-08T13:05:26.786Z,100221.23
2019-02-08T13:07:56.469Z,100221.23
2019-02-08T13:10:26.541Z,100216.44
2019-02-08T13:12:56.119Z,100216.44
2019-02-08T13:15:26.037Z,100225.64
2019-02-08T13:17:55.687Z,100215.16
2019-02-08T13:20:25.541Z,100233.05
2019-02-08T13:22:55.425Z,100222.59
2019-02-08T13:25:25.284Z,100207.33
2019-02-08T13:27:54.866Z,100207.33
2019-02-08T13:30:27.211Z,100194.67
2019-02-08T13:32:56.862Z,100205.56
2019-02-08T13:35:26.861Z,100205.56
2019-02-08T13:37:59.042Z,100202.09
2019-02-08T13:40:28.718Z,100206.86
2019-02-08T13:42:58.308Z,100199.91
2019-02-08T13:45:28.361Z,100199.91
2019-02-08T13:47:58.138Z,100195.98
2019-02-08T13:50:27.939Z,100195.98
2019-02-08T13:52:57.860Z,100199.85
2019-02-08T13:55:27.922Z,100206.42
2019-02-08T13:57:57.691Z,100207.29
2019-02-08T14:00:29.842Z,100203.34
2019-02-08T14:03:00.879Z,100196.82
2019-02-08T14:05:31.233Z,100202.48
2019-02-08T14:08:01.016Z,100202.48
2019-02-08T14:10:30.768Z,100199.44
2019-02-08T14:13:00.894Z,100195.94
2019-02-08T14:15:30.771Z,100194.17
2019-02-08T14:18:00.383Z,100195.05
2019-02-08T14:20:30.410Z,100196.39
2019-02-08T14:23:00.534Z,100196.39
2019-02-08T14:25:30.260Z,100189.42
2019-02-08T14:28:00.098Z,100189.42
2019-02-08T14:30:35.208Z,100195.08
2019-02-08T14:33:05.076Z,100172.81
2019-02-08T14:35:34.951Z,100172.81
2019-02-08T14:38:06.124Z,100159.32
2019-02-08T14:40:35.909Z,100168.89
2019-02-08T14:43:05.658Z,100156.26
2019-02-08T14:45:35.627Z,100148.87
2019-02-08T14:48:05.720Z,100144.09
2019-02-08T14:50:35.347Z,100138.92
2019-02-08T14:53:05.403Z,100138.92
2019-02-08T14:55:35.084Z,100128.88
2019-02-08T14:58:07.026Z,100120.17
2019-02-08T15:00:36.862Z,100120.17
2019-02-08T15:03:07.039Z,100116.67
2019-02-08T15:05:36.837Z,100115.78
2019-02-08T15:08:06.797Z,100124.89
2019-02-08T15:10:39.379Z,100127.94
2019-02-08T15:13:09.383Z,100127.94
2019-02-08T15:15:39.109Z,100131.38
2019-02-08T15:18:08.996Z,100131.38
2019-02-08T15:20:39.114Z,100136.14
2019-02-08T15:23:09.011Z,100119.17
2019-02-08T15:25:38.928Z,100119.17
2019-02-08T15:28:08.768Z,100117.41
2019-02-08T15:30:38.979Z,100097.35
2019-02-08T15:33:09.235Z,100101.72
2019-02-08T15:35:38.998Z,100091.29
2019-02-08T15:38:08.961Z,100091.29
2019-02-08T15:40:41.870Z,100093.91
2019-02-08T15:43:12.442Z,100086.07
2019-02-08T15:45:43.620Z,100080.84
2019-02-08T15:48:13.753Z,100072.16
2019-02-08T15:50:43.511Z,100062.56
2019-02-08T15:53:13.300Z,100062.56
2019-02-08T15:55:44.513Z,100057.35
2019-02-08T15:58:14.412Z,100052.14
2019-02-08T16:00:44.396Z,100053.86
2019-02-08T16:03:14.284Z,100040.84
2019-02-08T16:05:44.310Z,100036.50
2019-02-08T16:08:13.960Z,100036.50
2019-02-08T16:10:43.718Z,100030.39
2019-02-08T16:13:13.586Z,100030.39
2019-02-08T16:15:43.875Z,100022.56
2019-02-08T16:18:14.175Z,100004.70
2019-02-08T16:20:43.988Z,100004.27
2019-02-08T16:23:13.940Z,100004.27
2019-02-08T16:25:44.072Z,100000.78
2019-02-08T16:28:13.770Z,100000.81
2019-02-08T16:30:43.977Z,100000.81
2019-02-08T16:33:14.025Z,99991.23
2019-02-08T16:35:43.636Z,99991.23
2019-02-08T16:38:13.208Z,99996.02
2019-02-08T16:40:43.171Z,99992.12
2019-02-08T16:43:12.767Z,99971.64
2019-02-08T16:45:43.223Z,99974.28
2019-02-08T16:48:12.972Z,99975.58
2019-02-08T16:50:43.051Z,99965.14
2019-02-08T16:53:13.494Z,99959.05
2019-02-08T16:55:43.048Z,99963.38
2019-02-08T16:58:12.925Z,99945.97
2019-02-08T17:00:43.271Z,99934.66
2019-02-08T17:03:13.594Z,99947.71
2019-02-08T17:05:43.230Z,99929.42
2019-02-08T17:08:13.260Z,99936.84
2019-02-08T17:10:42.973Z,99936.84
2019-02-08T17:13:12.599Z,99932.06
2019-02-08T17:15:42.906Z,99922.48
2019-02-08T17:18:12.657Z,99915.53
2019-02-08T17:20:45.648Z,99916.84
2019-02-08T17:23:15.430Z,99895.48
2019-02-08T17:25:45.540Z,99897.26
2019-02-08T17:28:15.642Z,99897.26
2019-02-08T17:30:45.181Z,99902.47
2019-02-08T17:33:14.851Z,99887.25
2019-02-08T17:35:44.778Z,99885.48
2019-02-08T17:38:14.491Z,99885.48
2019-02-08T17:40:47.954Z,99875.92
2019-02-08T17:43:17.548Z,99866.77
2019-02-08T17:45:47.301Z,99865.06
2019-02-08T17:48:17.325Z,99869.41
2019-02-08T17:50:47.212Z,99861.58
2019-02-08T17:53:16.899Z,99852.86
2019-02-08T17:55:48.362Z,99852.00
2019-02-08T17:58:18.204Z,99848.09
2019-02-08T18:00:55.783Z,99839.81
2019-02-08T18:03:25.595Z,99839.38
2019-02-08T18:05:55.529Z,99672.82
2019-02-08T18:08:25.372Z,99820.25
2019-02-08T18:10:57.536Z,99802.41
2019-02-08T18:13:27.555Z,99802.41
2019-02-08T18:15:57.246Z,99814.14
2019-02-08T18:18:27.457Z,99814.14
2019-02-08T18:21:00.222Z,99803.69
2019-02-08T18:23:29.817Z,99797.16
2019-02-08T18:25:59.529Z,99794.11
2019-02-08T18:28:29.296Z,99789.34
2019-02-08T18:30:58.888Z,99784.12
2019-02-08T18:33:28.615Z,99786.28
2019-02-08T18:35:58.491Z,99786.28
2019-02-08T18:38:28.285Z,99776.71
2019-02-08T18:40:58.092Z,99759.73
2019-02-08T18:43:27.940Z,99764.09
2019-02-08T18:45:57.535Z,99764.09
2019-02-08T18:48:27.192Z,99774.52
2019-02-08T18:50:57.063Z,99751.91
2019-02-08T18:53:26.719Z,99747.99
2019-02-08T18:55:56.411Z,99735.37
2019-02-08T18:58:26.170Z,99735.37
2019-02-08T19:00:55.919Z,99731.90
2019-02-08T19:03:25.734Z,99731.90
2019-02-08T19:05:55.609Z,99735.37
2019-02-08T19:08:25.251Z,99720.56
2019-02-08T19:10:55.143Z,99725.78
2019-02-08T19:13:25.773Z,99717.54
2019-02-08T19:15:55.470Z,99701.00
2019-02-08T19:18:25.167Z,99716.20
2019-02-08T19:20:55.207Z,99716.20
2019-02-08T19:23:25.078Z,99705.34
2019-02-08T19:25:54.946Z,99705.34
2019-02-08T19:28:26.612Z,99675.73
2019-02-08T19:30:56.065Z,99683.56
2019-02-08T19:33:26.042Z,99685.76
2019-02-08T19:35:55.621Z,99676.17
2019-02-08T19:38:26.128Z,99687.06
2019-02-08T19:40:55.982Z,99687.06
2019-02-08T19:43:25.922Z,99674.42
2019-02-08T19:45:55.790Z,99674.42
2019-02-08T19:48:25.639Z,99647.45
2019-02-08T19:50:55.587Z,99665.73
2019-02-08T19:53:25.560Z,99660.51
2019-02-08T19:55:55.676Z,99655.29
2019-02-08T19:58:25.390Z,99650.91
2019-02-08T20:00:55.482Z,99651.36
2019-02-08T20:03:25.551Z,99638.73
2019-02-08T20:05:55.452Z,99647.41
2019-02-08T20:08:25.322Z,99639.58
2019-02-08T20:10:55.326Z,99642.62
2019-02-08T20:13:24.862Z,99634.78
2019-02-08T20:15:54.791Z,99620.83
2019-02-08T20:18:24.619Z,99623.02
2019-02-08T20:20:54.847Z,99625.58
2019-02-08T20:23:24.609Z,99614.67
2019-02-08T20:25:54.517Z,99614.67
2019-02-08T20:28:24.833Z,99610.73
2019-02-08T20:30:55.116Z,99598.60
2019-02-08T20:33:25.659Z,99598.60
2019-02-08T20:35:55.493Z,99588.09
2019-02-08T20:38:25.563Z,99596.83
2019-02-08T20:40:55.533Z,99589.01
2019-02-08T20:43:26.030Z,99589.01
2019-02-08T20:45:55.749Z,99586.38
2019-02-08T20:48:25.441Z,99586.38
2019-02-08T20:50:55.552Z,99574.64
2019-02-08T20:53:25.454Z,99564.58
2019-02-08T20:55:55.431Z,99573.32
2019-02-08T20:58:25.288Z,99573.32
2019-02-08T21:00:55.310Z,99565.50
2019-02-08T21:03:25.519Z,99537.62
2019-02-08T21:05:55.760Z,99537.62
2019-02-08T21:08:25.494Z,99554.20
2019-02-08T21:10:55.347Z,99554.20
2019-02-08T21:13:29.870Z,99547.20
2019-02-08T21:15:59.668Z,99547.20
2019-02-08T21:18:29.641Z,99548.95
2019-02-08T21:20:59.688Z,99541.98
2019-02-08T21:23:29.623Z,99548.08
2019-02-08T21:25:59.398Z,99550.67
2019-02-08T21:28:29.172Z,99521.92
2019-02-08T21:30:58.890Z,99521.92
2019-02-08T21:33:28.672Z,99521.92
2019-02-08T21:35:58.644Z,99528.08
2019-02-08T21:38:28.306Z,99532.39
2019-02-08T21:40:58.186Z,99513.24
2019-02-08T21:43:29.799Z,99513.24
2019-02-08T21:45:59.862Z,99514.13
2019-02-08T21:48:29.568Z,99514.13
2019-02-08T21:50:59.366Z,99507.16
2019-02-08T21:53:29.229Z,99521.03
2019-02-08T21:55:58.942Z,99505.34
2019-02-08T21:58:28.542Z,99495.73
2019-02-08T22:01:01.541Z,99495.73
2019-02-08T22:03:31.310Z,99503.16
2019-02-08T22:06:04.416Z,99503.16
2019-02-08T22:08:34.182Z,99481.38
2019-02-08T22:11:03.936Z,99480.95
2019-02-08T22:13:34.075Z,99458.27
2019-02-08T22:16:04.157Z,99451.74
2019-02-08T22:18:33.834Z,99454.77
2019-02-08T22:21:03.994Z,99454.77
2019-02-08T22:23:33.722Z,99440.84
2019-02-08T22:26:03.461Z,99447.83
2019-02-08T22:28:33.452Z,99446.50
2019-02-08T22:31:03.158Z,99431.72
2019-02-08T22:33:32.775Z,99420.38
2019-02-08T22:36:04.032Z,99418.17
2019-02-08T22:38:33.597Z,99418.17
2019-02-08T22:41:03.169Z,99420.80
2019-02-08T22:43:34.192Z,99414.72
2019-02-08T22:46:03.929Z,99396.45
2019-02-08T22:48:33.586Z,99399.91
2019-02-08T22:51:03.479Z,99400.80
2019-02-08T22:53:33.149Z,99400.80
2019-02-08T22:56:02.852Z,99390.86
2019-02-08T22:58:32.735Z,99388.66
2019-02-08T23:01:27.332Z,99389.53
2019-02-08T23:03:58.294Z,99381.21
2019-02-08T23:06:28.335Z,99385.59
2019-02-08T23:08:58.961Z,99383.36
2019-02-08T23:11:29.552Z,99389.48
2019-02-08T23:13:59.307Z,99377.30
2019-02-08T23:16:29.236Z,99368.63
2019-02-08T23:18:59.270Z,99369.51
2019-02-08T23:21:29.229Z,99371.23
2019-02-08T23:23:59.053Z,99370.34
2019-02-08T23:26:28.695Z,99364.30
2019-02-08T23:28:58.520Z,99364.30
2019-02-08T23:31:28.574Z,99364.30
2019-02-08T23:33:58.277Z,99360.84
2019-02-08T23:36:28.040Z,99337.80
2019-02-08T23:38:58.049Z,99341.72
2019-02-08T23:41:27.771Z,99342.58
2019-02-08T23:43:57.394Z,99340.39
2019-02-08T23:46:27.174Z,99340.39
2019-02-08T23:48:56.960Z,99336.93
2019-02-08T23:51:26.636Z,99322.56
2019-02-08T23:53:56.897Z,99319.90
2019-02-08T23:56:26.727Z,99319.90
2019-02-08T23:58:56.468Z,99304.20
